Time;durP1;ratioP1;P1;durP2;ratioP2;P2;SDS_P1;SDS_P2;PMS_P1;PMS_P2;Temp;Humidity;BMP_temperature;BMP_pressure;BME280_temperature;BME280_humidity;BME280_pressure;Samples;Min_cycle;Max_cycle;Signal;HPM_P1;HPM_P2
2022/09/10 00:01:26;;;;;;;21.60;13.43;;;;;;;13.62;100.00;100813.72;5093540;28;20107;-58
2022/09/10 00:03:53;;;;;;;22.15;13.15;;;;;;;13.67;100.00;100816.31;5094212;28;20020;-60
2022/09/10 00:06:19;;;;;;;20.95;13.57;;;;;;;13.66;100.00;100819.44;5093751;28;20427;-57
2022/09/10 00:08:46;;;;;;;22.42;13.85;;;;;;;13.67;100.00;100815.53;5094037;28;20070;-58
2022/09/10 00:11:13;;;;;;;21.45;14.00;;;;;;;13.67;100.00;100816.31;5075583;28;20089;-59
2022/09/10 00:13:39;;;;;;;23.33;14.02;;;;;;;13.68;100.00;100815.19;5093607;28;20403;-59
2022/09/10 00:16:07;;;;;;;22.00;14.02;;;;;;;13.67;100.00;100807.19;5093780;28;20118;-59
2022/09/10 00:18:33;;;;;;;22.15;13.95;;;;;;;13.70;100.00;100820.41;5092488;28;20052;-58
2022/09/10 00:21:01;;;;;;;24.38;13.73;;;;;;;13.71;100.00;100808.97;5075025;28;20161;-59
2022/09/10 00:23:28;;;;;;;23.25;14.57;;;;;;;13.71;100.00;100806.19;5094016;28;20016;-60
2022/09/10 00:25:55;;;;;;;21.25;13.95;;;;;;;13.70;100.00;100806.50;5093666;28;20020;-58
2022/09/10 00:28:22;;;;;;;23.73;14.23;;;;;;;13.70;100.00;100799.00;5093863;28;20016;-58
2022/09/10 00:30:49;;;;;;;22.10;14.30;;;;;;;13.70;100.00;100798.16;5093099;28;20088;-58
2022/09/10 00:33:16;;;;;;;23.08;14.27;;;;;;;13.66;100.00;100794.44;5092775;28;20044;-58
2022/09/10 00:35:42;;;;;;;22.55;13.93;;;;;;;13.74;100.00;100799.16;5092764;28;20110;-59
2022/09/10 00:38:09;;;;;;;26.23;14.85;;;;;;;13.74;100.00;100801.94;5093271;28;20113;-59
2022/09/10 00:40:36;;;;;;;23.58;14.25;;;;;;;13.75;100.00;100806.34;5092937;28;20523;-61
2022/09/10 00:43:02;;;;;;;22.50;14.05;;;;;;;13.77;100.00;100806.84;5092799;28;20062;-59
2022/09/10 00:45:30;;;;;;;21.92;14.02;;;;;;;13.77;100.00;100800.44;5093988;28;20384;-61
2022/09/10 00:48:01;;;;;;;24.33;13.73;;;;;;;13.79;100.00;100800.94;5093678;28;20024;-57
2022/09/10 00:50:29;;;;;;;23.33;13.98;;;;;;;13.79;100.00;100798.16;5074627;28;20036;-62
2022/09/10 00:52:59;;;;;;;24.08;14.68;;;;;;;13.77;100.00;100803.22;5093712;28;20028;-60
2022/09/10 00:55:25;;;;;;;22.48;13.77;;;;;;;13.76;100.00;100805.22;5093609;28;20490;-60
2022/09/10 00:57:53;;;;;;;23.92;13.75;;;;;;;13.72;100.00;100796.72;5092718;28;20032;-59
2022/09/10 01:00:19;;;;;;;20.35;13.13;;;;;;;13.74;100.00;100804.72;5091940;28;20111;-58
2022/09/10 01:02:44;;;;;;;23.10;13.43;;;;;;;13.75;100.00;100816.63;5092173;28;20106;-60
2022/09/10 01:05:10;;;;;;;23.48;14.43;;;;;;;13.67;100.00;100801.63;5091883;28;20165;-59
2022/09/10 01:07:36;;;;;;;26.52;14.10;;;;;;;13.72;100.00;100810.63;5091947;28;20111;-59
2022/09/10 01:10:10;;;;;;;25.02;14.30;;;;;;;13.72;100.00;100815.34;5074397;28;20439;-61
2022/09/10 01:12:50;;;;;;;21.67;14.00;;;;;;;13.67;100.00;100802.44;5092793;28;20475;-59
2022/09/10 01:15:23;;;;;;;23.65;14.27;;;;;;;13.71;100.00;100808.97;5092794;28;20028;-59
2022/09/10 01:18:10;;;;;;;23.27;14.52;;;;;;;13.73;100.00;100819.75;5071206;22;20062;-60
2022/09/10 01:20:59;;;;;;;22.95;14.23;;;;;;;13.73;100.00;100817.81;5011762;28;20112;-60
2022/09/10 01:23:46;;;;;;;24.33;14.82;;;;;;;13.73;100.00;100820.59;5011970;28;20022;-60
2022/09/10 01:26:34;;;;;;;24.85;14.45;;;;;;;13.69;100.00;100810.47;5011638;28;20110;-60
2022/09/10 01:29:08;;;;;;;23.88;15.20;;;;;;;13.73;100.00;100825.31;5012375;28;20037;-61
2022/09/10 01:31:48;;;;;;;26.17;14.85;;;;;;;13.73;100.00;100814.19;5011828;28;20105;-60
2022/09/10 01:34:37;;;;;;;25.65;14.88;;;;;;;13.73;100.00;100822.53;5011307;28;20113;-60
2022/09/10 01:37:07;;;;;;;25.27;14.90;;;;;;;13.72;100.00;100818.97;5011785;28;20034;-60
2022/09/10 01:39:33;;;;;;;23.38;15.20;;;;;;;13.73;100.00;100815.03;5012341;28;20034;-60
2022/09/10 01:41:59;;;;;;;24.05;15.27;;;;;;;13.73;100.00;100814.19;5011535;28;20127;-61
2022/09/10 01:44:45;;;;;;;26.38;15.65;;;;;;;13.71;100.00;100820.09;5012193;28;20036;-60
2022/09/10 01:47:35;;;;;;;26.08;16.10;;;;;;;13.72;100.00;100821.72;5011829;28;20025;-60
2022/09/10 01:50:30;;;;;;;26.08;16.00;;;;;;;13.72;100.00;100821.72;5011434;28;20029;-60
2022/09/10 01:53:14;;;;;;;26.08;15.93;;;;;;;13.71;100.00;100817.31;5010725;28;20493;-59
2022/09/10 01:56:03;;;;;;;25.50;16.25;;;;;;;13.69;100.00;100811.25;5010873;28;20399;-59
2022/09/10 01:58:33;;;;;;;27.80;16.30;;;;;;;13.68;100.00;100804.06;5010969;28;20030;-60
2022/09/10 02:01:13;;;;;;;24.88;16.02;;;;;;;13.72;100.00;100807.84;5010964;28;20105;-61
2022/09/10 02:03:40;;;;;;;25.17;17.50;;;;;;;13.72;100.00;100812.56;5011285;28;20037;-60
2022/09/10 02:06:11;;;;;;;28.50;16.38;;;;;;;13.72;100.00;100804.22;5011429;28;20108;-59
2022/09/10 02:08:39;;;;;;;27.08;16.92;;;;;;;13.73;100.00;100805.84;5010771;28;20050;-59
2022/09/10 02:11:08;;;;;;;24.30;16.95;;;;;;;13.73;100.00;100803.91;5011079;28;20022;-58
2022/09/10 02:13:35;;;;;;;26.13;17.02;;;;;;;13.75;100.00;100799.97;5011060;28;20041;-60
2022/09/10 02:16:05;;;;;;;25.10;16.85;;;;;;;13.71;100.00;100797.03;5011433;28;20474;-59
2022/09/10 02:18:34;;;;;;;25.35;16.52;;;;;;;13.77;100.00;100803.22;5025691;28;20327;-58
2022/09/10 02:21:02;;;;;;;28.05;16.55;;;;;;;13.76;100.00;100802.44;5030687;28;20025;-60
2022/09/10 02:23:33;;;;;;;29.88;17.27;;;;;;;13.72;100.00;100788.38;5031770;28;20036;-60
2022/09/10 02:25:59;;;;;;;26.98;17.92;;;;;;;13.79;100.00;100801.75;5030825;28;20062;-60
2022/09/10 02:28:24;;;;;;;26.67;17.73;;;;;;;13.80;100.00;100802.59;5030873;28;20029;-58
2022/09/10 02:30:49;;;;;;;27.88;17.48;;;;;;;13.81;100.00;100793.09;5031397;28;20040;-58
2022/09/10 02:33:15;;;;;;;27.02;16.70;;;;;;;13.81;100.00;100790.31;5030614;28;20021;-60
2022/09/10 02:35:42;;;;;;;27.00;17.05;;;;;;;13.80;100.00;100794.25;5031124;28;20026;-60
2022/09/10 02:38:07;;;;;;;27.65;17.13;;;;;;;13.82;100.00;100786.41;5030869;28;20108;-58
2022/09/10 02:40:33;;;;;;;26.83;17.90;;;;;;;13.84;100.00;100792.41;5030750;28;20183;-59
2022/09/10 02:42:58;;;;;;;26.83;17.75;;;;;;;13.85;100.00;100783.78;5032347;28;20481;-60
2022/09/10 02:45:24;;;;;;;26.17;18.38;;;;;;;13.87;100.00;100786.22;5034922;28;20068;-61
2022/09/10 02:47:49;;;;;;;25.63;17.27;;;;;;;13.87;100.00;100784.25;5034480;28;20037;-58
2022/09/10 02:50:15;;;;;;;30.02;18.50;;;;;;;13.87;100.00;100787.03;5034706;28;20108;-59
2022/09/10 02:52:41;;;;;;;27.63;18.35;;;;;;;13.89;100.00;100786.72;5034968;28;20029;-60
2022/09/10 02:55:07;;;;;;;27.60;18.63;;;;;;;13.89;100.00;100787.50;5035088;28;20100;-60
2022/09/10 02:57:32;;;;;;;29.00;18.67;;;;;;;13.93;100.00;100789.63;5034697;28;20029;-60
2022/09/10 02:59:58;;;;;;;29.23;19.00;;;;;;;13.93;100.00;100786.84;5034952;28;20492;-59
2022/09/10 03:02:24;;;;;;;27.48;18.77;;;;;;;13.95;100.00;100785.38;5034261;28;20029;-59
2022/09/10 03:04:49;;;;;;;27.20;18.95;;;;;;;13.95;100.00;100790.94;5035112;28;20031;-60
2022/09/10 03:07:18;;;;;;;27.05;18.23;;;;;;;13.99;100.00;100796.66;5034143;28;20056;-58
2022/09/10 03:09:44;;;;;;;26.77;18.92;;;;;;;13.98;100.00;100792.25;5035039;28;20112;-60
2022/09/10 03:12:09;;;;;;;31.17;20.25;;;;;;;14.01;100.00;100795.19;5034991;28;20117;-62
2022/09/10 03:14:35;;;;;;;30.00;20.27;;;;;;;14.01;100.00;100789.63;5033871;28;20041;-60
2022/09/10 03:17:01;;;;;;;28.65;20.95;;;;;;;14.02;100.00;100787.66;5033574;28;20389;-60
2022/09/10 03:19:27;;;;;;;27.08;19.02;;;;;;;14.03;100.00;100797.63;5034105;28;20127;-60
2022/09/10 03:21:52;;;;;;;26.95;19.42;;;;;;;14.06;100.00;100791.41;5034132;28;20121;-60
2022/09/10 03:24:18;;;;;;;27.75;19.80;;;;;;;14.05;100.00;100781.44;5034342;28;20040;-59
2022/09/10 03:26:44;;;;;;;28.08;19.65;;;;;;;14.06;100.00;100790.59;5035134;28;20076;-61
2022/09/10 03:29:09;;;;;;;29.50;19.85;;;;;;;14.07;100.00;100793.06;5033571;28;20035;-61
2022/09/10 03:31:35;;;;;;;29.15;19.63;;;;;;;14.08;100.00;100791.06;5033306;28;20047;-61
2022/09/10 03:34:01;;;;;;;31.02;20.60;;;;;;;14.09;100.00;100795.50;5033944;28;20041;-60
2022/09/10 03:36:30;;;;;;;27.67;19.30;;;;;;;14.08;100.00;100793.84;5033326;28;20034;-61
2022/09/10 03:38:55;;;;;;;27.75;20.35;;;;;;;14.09;100.00;100790.75;5033259;28;20033;-61
2022/09/10 03:41:20;;;;;;;30.00;19.80;;;;;;;14.08;100.00;100799.41;5033645;28;20524;-62
2022/09/10 03:43:45;;;;;;;27.27;19.45;;;;;;;14.08;100.00;100791.06;5034162;28;20025;-61
2022/09/10 03:46:11;;;;;;;27.98;19.70;;;;;;;14.08;100.00;100789.09;5034050;28;20028;-61
2022/09/10 03:48:38;;;;;;;29.05;19.33;;;;;;;14.10;100.00;100786.81;5033702;28;20033;-61
2022/09/10 03:51:03;;;;;;;29.08;20.27;;;;;;;14.10;100.00;100783.22;5033829;28;20026;-61
2022/09/10 03:53:28;;;;;;;31.15;20.90;;;;;;;14.10;100.00;100786.81;5033216;28;20108;-60
2022/09/10 03:55:54;;;;;;;29.50;20.98;;;;;;;14.07;100.00;100787.50;5032488;28;20130;-61
2022/09/10 03:58:20;;;;;;;27.45;20.98;;;;;;;14.08;100.00;100782.72;5033677;28;20445;-60
2022/09/10 04:00:45;;;;;;;28.75;20.83;;;;;;;14.06;100.00;100785.03;5032762;28;20041;-59
2022/09/10 04:03:11;;;;;;;33.30;20.98;;;;;;;14.07;100.00;100778.31;5033060;28;20445;-59
2022/09/10 04:05:42;;;;;;;32.13;20.55;;;;;;;14.06;100.00;100782.25;5032582;28;20393;-59
2022/09/10 04:08:08;;;;;;;28.80;20.80;;;;;;;14.07;100.00;100775.53;5033723;28;20466;-59
2022/09/10 04:10:34;;;;;;;28.98;21.02;;;;;;;14.04;100.00;100777.81;5033619;28;20501;-60
2022/09/10 04:12:59;;;;;;;28.25;21.35;;;;;;;14.05;100.00;100773.09;5032995;28;20029;-58
2022/09/10 04:15:25;;;;;;;28.55;20.60;;;;;;;14.05;100.00;100773.09;5032932;28;20388;-61
2022/09/10 04:17:50;;;;;;;30.40;22.20;;;;;;;14.06;100.00;100777.50;5032481;28;20196;-61
2022/09/10 04:20:20;;;;;;;32.22;21.73;;;;;;;14.04;100.00;100772.25;5032952;28;20041;-62
2022/09/10 04:22:46;;;;;;;29.58;21.23;;;;;;;14.05;100.00;100773.09;5033229;28;20025;-61
2022/09/10 04:25:12;;;;;;;29.80;21.75;;;;;;;14.04;100.00;100769.47;5032063;28;20022;-60
2022/09/10 04:27:38;;;;;;;30.58;21.90;;;;;;;14.05;100.00;100770.31;5032668;28;20021;-60
2022/09/10 04:30:04;;;;;;;30.13;22.35;;;;;;;14.04;100.00;100769.47;5032631;28;20029;-60
2022/09/10 04:32:29;;;;;;;28.83;21.02;;;;;;;14.06;100.00;100769.16;5032774;28;20045;-59
2022/09/10 04:34:54;;;;;;;29.40;22.92;;;;;;;14.07;100.00;100767.19;5033018;28;20108;-59
2022/09/10 04:37:20;;;;;;;29.27;22.15;;;;;;;14.02;100.00;100765.41;5032846;28;20025;-61
2022/09/10 04:39:45;;;;;;;30.80;21.58;;;;;;;14.08;100.00;100766.84;5033172;28;20025;-61
2022/09/10 04:42:13;;;;;;;30.52;22.08;;;;;;;14.09;100.00;100773.25;5033134;28;20032;-61
2022/09/10 04:44:39;;;;;;;33.00;22.85;;;;;;;14.09;100.00;100776.81;5032533;28;20037;-60
2022/09/10 04:47:05;;;;;;;30.45;22.02;;;;;;;14.08;100.00;100774.38;5031960;28;20381;-61
2022/09/10 04:49:30;;;;;;;32.28;22.30;;;;;;;14.09;100.00;100779.59;5032407;28;20101;-60
2022/09/10 04:51:55;;;;;;;30.30;21.80;;;;;;;14.10;100.00;100778.47;5032219;28;20040;-60
2022/09/10 04:54:21;;;;;;;31.33;23.52;;;;;;;14.12;100.00;100780.94;5030862;28;20030;-61
2022/09/10 04:56:46;;;;;;;33.17;21.95;;;;;;;14.12;100.00;100783.72;5031949;28;20035;-61
2022/09/10 04:59:12;;;;;;;31.10;23.13;;;;;;;14.13;100.00;100782.53;5032950;28;20204;-61
2022/09/10 05:01:37;;;;;;;29.13;22.98;;;;;;;14.13;100.00;100788.94;5032724;28;20064;-61
2022/09/10 05:04:02;;;;;;;31.35;22.55;;;;;;;14.12;100.00;100781.75;5031499;28;20022;-61
2022/09/10 05:06:28;;;;;;;29.90;21.52;;;;;;;14.13;100.00;100777.81;5032363;28;20033;-61
2022/09/10 05:08:54;;;;;;;30.48;22.73;;;;;;;14.15;100.00;100783.03;5033027;28;20128;-62
2022/09/10 05:11:20;;;;;;;30.60;22.52;;;;;;;14.15;100.00;100777.47;5032970;28;20044;-61
2022/09/10 05:13:46;;;;;;;30.40;22.13;;;;;;;14.15;100.00;100780.25;5032756;28;20029;-61
2022/09/10 05:16:11;;;;;;;31.23;22.55;;;;;;;14.17;100.00;100775.19;5032781;28;20029;-61
2022/09/10 05:18:36;;;;;;;31.67;23.15;;;;;;;14.17;100.00;100780.75;5032552;28;20140;-61
2022/09/10 05:21:02;;;;;;;32.15;22.70;;;;;;;14.18;100.00;100782.38;5032363;28;20022;-61
2022/09/10 05:23:28;;;;;;;34.63;24.35;;;;;;;14.17;100.00;100781.53;5031521;28;20075;-61
2022/09/10 05:25:53;;;;;;;32.63;23.35;;;;;;;14.17;100.00;100770.41;5032581;28;20021;-61
2022/09/10 05:28:20;;;;;;;31.42;23.05;;;;;;;14.19;100.00;100775.66;5032022;28;20049;-62
2022/09/10 05:30:46;;;;;;;29.58;22.67;;;;;;;14.23;100.00;100782.19;5032613;28;20049;-62
2022/09/10 05:33:11;;;;;;;29.17;21.95;;;;;;;14.23;100.00;100781.38;5032256;28;20063;-62
2022/09/10 05:35:36;;;;;;;32.92;23.58;;;;;;;14.25;100.00;100781.88;5032069;28;20060;-62
2022/09/10 05:38:02;;;;;;;33.60;25.27;;;;;;;14.25;100.00;100782.69;5032100;28;20026;-62
2022/09/10 05:40:28;;;;;;;35.45;23.00;;;;;;;14.25;100.00;100790.22;5032055;28;20096;-61
2022/09/10 05:42:53;;;;;;;33.72;24.10;;;;;;;14.25;100.00;100787.44;5032113;28;20122;-61
2022/09/10 05:45:19;;;;;;;33.17;24.85;;;;;;;14.23;100.00;100775.81;5031923;28;20437;-61
2022/09/10 05:47:45;;;;;;;35.42;23.77;;;;;;;14.25;100.00;100773.53;5032257;28;20036;-62
2022/09/10 05:50:10;;;;;;;32.67;23.85;;;;;;;14.25;100.00;100771.53;5031073;28;20074;-61
2022/09/10 05:52:36;;;;;;;33.30;23.75;;;;;;;14.26;100.00;100780.72;5031869;28;20033;-61
2022/09/10 05:55:01;;;;;;;32.67;23.75;;;;;;;14.28;100.00;100784.81;5031952;28;20029;-61
2022/09/10 05:57:26;;;;;;;32.30;23.83;;;;;;;14.28;100.00;100782.03;5031956;28;20033;-62
2022/09/10 05:59:52;;;;;;;33.60;23.92;;;;;;;14.27;100.00;100785.94;5031640;28;20057;-61
2022/09/10 06:02:18;;;;;;;36.22;24.88;;;;;;;14.25;100.00;100774.31;5031489;28;20169;-61
2022/09/10 06:04:43;;;;;;;35.65;24.45;;;;;;;14.28;100.00;100786.75;5031815;28;20033;-61
2022/09/10 06:07:09;;;;;;;31.85;23.10;;;;;;;14.30;100.00;100787.25;5031833;28;20041;-61
2022/09/10 06:09:35;;;;;;;31.38;22.50;;;;;;;14.32;100.00;100784.94;5031656;28;20387;-61
2022/09/10 06:12:00;;;;;;;32.42;22.73;;;;;;;14.34;100.00;100774.31;5031601;28;20071;-63
2022/09/10 06:14:25;;;;;;;32.08;22.80;;;;;;;14.36;100.00;100783.13;5030330;28;20095;-61
2022/09/10 06:16:53;;;;;;;34.28;23.63;;;;;;;14.40;100.00;100786.88;5030559;28;20034;-61
2022/09/10 06:19:19;;;;;;;32.65;23.17;;;;;;;14.43;100.00;100779.81;5031487;28;20029;-60
2022/09/10 06:21:45;;;;;;;32.88;22.92;;;;;;;14.46;100.00;100787.50;5031342;28;20060;-59
2022/09/10 06:24:11;;;;;;;31.92;23.40;;;;;;;14.50;100.00;100785.69;5031395;28;20036;-59
2022/09/10 06:26:37;;;;;;;33.00;23.75;;;;;;;14.56;100.00;100789.09;5031367;28;20481;-59
2022/09/10 06:29:02;;;;;;;33.30;24.23;;;;;;;14.58;100.00;100787.63;5031692;28;20029;-61
2022/09/10 06:31:28;;;;;;;30.08;21.63;;;;;;;14.65;100.00;100789.88;5031701;28;20045;-61
2022/09/10 06:33:53;;;;;;;32.97;22.13;;;;;;;14.66;100.00;100789.56;5031703;28;20371;-60
2022/09/10 06:36:18;;;;;;;30.77;21.17;;;;;;;14.71;100.00;100788.56;5031679;28;20501;-55
2022/09/10 06:38:44;;;;;;;30.13;21.85;;;;;;;14.68;100.00;100794.00;5031739;28;20022;-60
2022/09/10 06:41:13;;;;;;;31.35;22.63;;;;;;;14.66;100.00;100795.16;5031556;28;20029;-60
2022/09/10 06:43:40;;;;;;;30.75;22.83;;;;;;;14.61;100.00;100791.69;5031286;28;20084;-60
2022/09/10 06:46:12;;;;;;;30.85;22.02;;;;;;;14.57;100.00;100786.00;5030997;28;20021;-59
2022/09/10 06:48:39;;;;;;;29.52;21.90;;;;;;;14.65;100.00;100801.00;5036927;28;20373;-59
2022/09/10 06:51:07;;;;;;;28.92;22.15;;;;;;;14.65;100.00;100803.78;5037692;28;20047;-59
2022/09/10 06:53:32;;;;;;;28.08;21.45;;;;;;;14.65;100.00;100804.63;5040699;28;20021;-60
2022/09/10 06:55:59;;;;;;;30.60;22.15;;;;;;;14.64;100.00;100802.97;5037956;28;20035;-60
2022/09/10 06:58:27;;;;;;;30.65;22.30;;;;;;;14.59;100.00;100799.56;5035031;28;20070;-59
2022/09/10 07:00:52;;;;;;;29.67;22.27;;;;;;;14.65;100.00;100812.13;5038848;28;20477;-59
2022/09/10 07:03:19;;;;;;;28.95;21.48;;;;;;;14.68;100.00;100797.59;5039261;28;20064;-60
2022/09/10 07:05:46;;;;;;;31.83;22.58;;;;;;;14.61;100.00;100791.69;5035324;28;20083;-59
2022/09/10 07:08:13;;;;;;;29.75;23.67;;;;;;;14.65;100.00;100801.00;5037308;28;20445;-59
2022/09/10 07:10:38;;;;;;;30.55;22.67;;;;;;;14.65;100.00;100807.41;5036411;28;20096;-59
2022/09/10 07:13:04;;;;;;;31.42;23.58;;;;;;;14.69;100.00;100810.34;5038115;28;20029;-60
2022/09/10 07:15:30;;;;;;;32.95;23.98;;;;;;;14.73;100.00;100807.72;5038769;28;20033;-58
2022/09/10 07:17:55;;;;;;;33.08;24.95;;;;;;;14.84;100.00;100813.72;5029061;28;20057;-59
2022/09/10 07:20:22;;;;;;;31.77;23.63;;;;;;;14.93;100.00;100818.09;5029302;28;20425;-59
2022/09/10 07:22:50;;;;;;;31.80;23.15;;;;;;;14.95;100.00;100809.38;5029593;28;20499;-58
2022/09/10 07:25:16;;;;;;;32.22;23.58;;;;;;;15.05;100.00;100811.78;5029759;28;20024;-59
2022/09/10 07:27:41;;;;;;;33.50;23.77;;;;;;;15.09;100.00;100815.53;5028617;28;20029;-59
2022/09/10 07:30:08;;;;;;;30.70;23.77;;;;;;;15.10;100.00;100817.19;5032215;28;20048;-58
2022/09/10 07:32:34;;;;;;;29.75;22.55;;;;;;;15.11;100.00;100820.78;5032512;28;20037;-58
2022/09/10 07:34:59;;;;;;;30.63;22.98;;;;;;;15.09;100.00;100823.91;5032758;28;20033;-59
2022/09/10 07:37:25;;;;;;;29.83;23.08;;;;;;;15.09;100.00;100823.06;5031963;28;20116;-60
2022/09/10 07:39:50;;;;;;;28.50;21.85;;;;;;;15.03;100.00;100816.06;5016412;28;20034;-60
2022/09/10 07:42:16;;;;;;;29.30;22.38;;;;;;;15.03;100.00;100827.22;4995062;28;20057;-61
2022/09/10 07:44:41;;;;;;;29.25;22.85;;;;;;;14.97;100.00;100821.81;5012981;28;20029;-60
2022/09/10 07:47:06;;;;;;;27.88;23.05;;;;;;;14.97;100.00;100821.03;5012683;28;20064;-59
2022/09/10 07:49:31;;;;;;;28.88;22.00;;;;;;;15.01;100.00;100823.94;5012477;28;20507;-59
2022/09/10 07:51:58;;;;;;;28.80;22.50;;;;;;;14.94;100.00;100827.25;5012622;28;20030;-60
2022/09/10 07:54:24;;;;;;;28.83;22.77;;;;;;;14.96;100.00;100833.31;5012890;28;20029;-59
2022/09/10 07:56:49;;;;;;;30.08;23.67;;;;;;;14.98;100.00;100831.00;4994917;28;20034;-59
2022/09/10 07:59:15;;;;;;;28.52;22.85;;;;;;;15.00;100.00;100836.25;5012838;28;20164;-60
2022/09/10 08:01:40;;;;;;;30.60;23.98;;;;;;;15.00;100.00;100831.50;5012674;28;20430;-59
2022/09/10 08:04:06;;;;;;;29.27;24.45;;;;;;;15.01;100.00;100835.09;5012539;28;20425;-60
2022/09/10 08:06:32;;;;;;;29.77;23.75;;;;;;;15.02;100.00;100840.31;5012663;28;20030;-58
2022/09/10 08:08:58;;;;;;;29.83;23.88;;;;;;;15.02;100.00;100840.31;5016850;28;20049;-59
2022/09/10 08:11:24;;;;;;;30.13;25.02;;;;;;;15.04;100.00;100843.59;5021589;28;20025;-59
2022/09/10 08:13:52;;;;;;;32.15;25.75;;;;;;;15.08;100.00;100852.91;5012796;28;20112;-60
2022/09/10 08:16:20;;;;;;;32.20;24.65;;;;;;;15.11;100.00;100848.63;5012551;28;20085;-59
2022/09/10 08:18:46;;;;;;;30.85;25.52;;;;;;;15.24;100.00;100855.94;5012168;28;20078;-59
2022/09/10 08:21:12;;;;;;;31.23;25.83;;;;;;;15.39;100.00;100851.75;5012260;28;20033;-59
2022/09/10 08:23:38;;;;;;;30.02;25.63;;;;;;;15.56;100.00;100850.78;5012278;28;20036;-58
2022/09/10 08:26:05;;;;;;;34.85;26.15;;;;;;;15.66;100.00;100852.34;5012535;28;20382;-59
2022/09/10 08:28:30;;;;;;;31.35;26.55;;;;;;;15.71;100.00;100857.72;5012514;28;20054;-59
2022/09/10 08:31:01;;;;;;;30.80;26.33;;;;;;;15.79;100.00;100860.75;5012008;28;20102;-60
2022/09/10 08:33:28;;;;;;;30.50;25.70;;;;;;;15.80;100.00;100857.66;5015743;28;20045;-59
2022/09/10 08:35:57;;;;;;;31.00;26.58;;;;;;;15.93;100.00;100866.06;5031393;28;20037;-60
2022/09/10 08:38:25;;;;;;;31.42;26.33;;;;;;;16.00;100.00;100869.16;5031033;28;20040;-58
2022/09/10 08:40:51;;;;;;;31.48;26.33;;;;;;;16.16;100.00;100869.31;5030122;28;20127;-59
2022/09/10 08:43:26;;;;;;;31.08;26.40;;;;;;;16.19;100.00;100866.66;5030579;28;20033;-59
2022/09/10 08:45:53;;;;;;;32.80;26.20;;;;;;;16.32;100.00;100880.63;5031192;28;20065;-60
2022/09/10 08:48:22;;;;;;;29.85;25.45;;;;;;;16.41;100.00;100874.97;5032152;28;20037;-60
2022/09/10 08:51:02;;;;;;;31.52;26.15;;;;;;;16.36;100.00;100867.63;5031726;28;20033;-60
2022/09/10 08:53:46;;;;;;;32.33;27.70;;;;;;;16.52;100.00;100882.56;5031220;28;20052;-60
2022/09/10 08:56:20;;;;;;;32.30;26.48;;;;;;;16.45;100.00;100879.53;5030856;28;20057;-59
2022/09/10 08:58:58;;;;;;;;;;;;;;;16.59;100.00;100890.38;5032308;28;20036;-60
2022/09/10 09:01:33;;;;;;;29.65;25.45;;;;;;;16.42;100.00;100879.41;5031314;28;19912;-59
2022/09/10 09:04:01;;;;;;;31.95;25.92;;;;;;;16.45;100.00;100887.06;5029949;28;20108;-60
2022/09/10 09:06:36;;;;;;;28.48;25.38;;;;;;;16.41;100.00;100894.50;5030433;28;20025;-59
2022/09/10 09:09:03;;;;;;;30.42;25.63;;;;;;;16.32;100.00;100902.97;5028436;28;20088;-59
2022/09/10 09:11:48;;;;;;;30.33;26.73;;;;;;;16.25;100.00;100897.13;5029534;28;20029;-60
2022/09/10 09:14:29;;;;;;;29.65;25.70;;;;;;;16.22;100.00;100910.63;5030355;28;20029;-59
2022/09/10 09:17:00;;;;;;;29.75;25.23;;;;;;;16.21;100.00;100903.41;5030205;28;20033;-59
2022/09/10 09:19:33;;;;;;;28.02;23.55;;;;;;;16.20;100.00;100909.34;5030498;28;20033;-59
2022/09/10 09:22:20;;;;;;;27.42;22.67;;;;;;;16.19;100.00;100893.75;5030615;28;20052;-59
2022/09/10 09:24:54;;;;;;;25.85;20.30;;;;;;;16.31;100.00;100907.75;5030341;28;20033;-57
2022/09/10 09:27:20;;;;;;;27.55;21.15;;;;;;;16.38;100.00;100904.41;5030549;28;20026;-59
2022/09/10 09:29:57;;;;;;;27.02;20.77;;;;;;;16.47;100.00;100905.13;5030570;28;20048;-60
2022/09/10 09:32:22;;;;;;;26.60;20.63;;;;;;;16.47;100.00;100907.09;5030672;28;20570;-60
2022/09/10 09:35:17;;;;;;;23.83;19.40;;;;;;;16.46;100.00;100906.28;5030643;28;20057;-59
2022/09/10 09:37:47;;;;;;;25.80;19.35;;;;;;;16.46;100.00;100903.50;5027743;28;20184;-58
2022/09/10 09:40:30;;;;;;;26.73;20.63;;;;;;;16.67;100.00;100908.19;5030451;28;20037;-59
2022/09/10 09:43:01;;;;;;;25.95;20.58;;;;;;;16.87;100.00;100898.09;5030285;28;20423;-59
2022/09/10 09:45:35;;;;;;;25.55;20.70;;;;;;;17.14;100.00;100906.97;5030234;28;20397;-59
2022/09/10 09:48:05;;;;;;;25.13;20.17;;;;;;;17.23;100.00;100906.88;5030233;28;20030;-60
2022/09/10 09:50:32;;;;;;;25.67;20.13;;;;;;;17.33;100.00;100911.16;5030219;28;20332;-60
2022/09/10 09:52:58;;;;;;;25.38;19.88;;;;;;;17.37;100.00;100912.91;5029821;28;20104;-59
2022/09/10 09:55:34;;;;;;;25.75;20.25;;;;;;;17.36;100.00;100916.06;5029981;28;20818;-59
2022/09/10 09:58:18;;;;;;;27.05;20.38;;;;;;;17.35;100.00;100906.81;5028608;28;20379;-59
2022/09/10 10:00:43;;;;;;;26.35;19.90;;;;;;;17.32;100.00;100913.16;5029930;28;20025;-60
2022/09/10 10:03:16;;;;;;;25.13;20.15;;;;;;;17.31;100.00;100898.34;5029787;28;20493;-58
2022/09/10 10:05:41;;;;;;;26.27;20.08;;;;;;;17.45;100.00;100905.56;5030259;28;20033;-60
2022/09/10 10:08:28;;;;;;;27.33;19.80;;;;;;;17.59;100.00;100894.78;5028354;28;20040;-60
2022/09/10 10:10:54;;;;;;;25.55;19.23;;;;;;;17.67;100.00;100903.38;5030119;28;20036;-58
2022/09/10 10:13:21;;;;;;;23.52;18.33;;;;;;;17.77;100.00;100914.94;5030153;28;20018;-60
2022/09/10 10:15:46;;;;;;;24.05;18.15;;;;;;;17.85;100.00;100915.97;5030575;28;20022;-60
2022/09/10 10:18:28;;;;;;;25.67;18.63;;;;;;;17.82;100.00;100925.06;5029921;28;20099;-60
2022/09/10 10:21:16;;;;;;;24.98;17.00;;;;;;;17.72;100.00;100925.53;5030249;28;20081;-61
2022/09/10 10:23:41;;;;;;;27.20;17.50;;;;;;;17.60;100.00;100926.38;5030212;28;20091;-60
2022/09/10 10:26:25;;;;;;;24.30;17.63;;;;;;;17.54;100.00;100906.25;5030092;28;20552;-60
2022/09/10 10:29:05;;;;;;;24.33;16.95;;;;;;;17.65;100.00;100911.34;5030023;28;20489;-60
2022/09/10 10:31:46;;;;;;;24.50;17.35;;;;;;;17.74;100.00;100904.44;5030309;28;20487;-60
2022/09/10 10:34:52;;;;;;;24.88;16.65;;;;;;;17.76;100.00;100909.66;5030318;28;20028;-59
2022/09/10 10:37:27;;;;;;;23.70;15.90;;;;;;;17.77;100.00;100930.88;5030298;28;20033;-60
2022/09/10 10:40:10;;;;;;;22.45;15.18;;;;;;;17.70;100.00;100923.09;5030751;28;20026;-59
2022/09/10 10:42:53;;;;;;;23.95;15.65;;;;;;;17.54;100.00;100911.00;5030284;28;20024;-60
2022/09/10 10:45:35;;;;;;;23.95;14.80;;;;;;;17.42;100.00;100915.47;5030470;28;20033;-60
2022/09/10 10:48:03;;;;;;;22.45;15.20;;;;;;;17.33;100.00;100930.72;5027640;28;20155;-60
2022/09/10 10:50:41;;;;;;;21.60;15.75;;;;;;;17.21;100.00;100929.56;5021486;28;20022;-60
2022/09/10 10:53:25;;;;;;;21.50;14.55;;;;;;;17.15;100.00;100930.97;5010993;28;20048;-61
2022/09/10 10:56:11;;;;;;;22.17;14.63;;;;;;;17.01;100.00;100936.91;5011124;28;20153;-61
2022/09/10 10:59:03;;;;;;;22.90;15.23;;;;;;;16.95;100.00;100946.69;5010969;28;20486;-61
2022/09/10 11:01:34;;;;;;;24.50;16.10;;;;;;;16.89;100.00;100950.81;5010933;28;20030;-61
2022/09/10 11:04:33;;;;;;;22.65;14.40;;;;;;;16.88;100.00;100938.00;5011875;28;20041;-60
2022/09/10 11:07:27;;;;;;;22.65;14.60;;;;;;;16.80;100.00;100928.59;5012753;28;20041;-58
2022/09/10 11:10:04;;;;;;;;;;;;;;;16.83;100.00;100939.03;5014781;28;20398;-60
2022/09/10 11:12:34;;;;;;;23.10;13.68;;;;;;;16.88;100.00;100950.00;5014125;28;19913;-59